Nearby METAR Reports

 

KMTN - Baltimore/Martin, Maryland, USA
Distance from station: SSE 8mi, 13km
Updated: Fri, 28-Aug-2015 9:45am EDT
Clear
Clear
 Wind from calm
Wind: Calm
Temperature: 73°F , 23°C
Dew Point: 63°F , 17°C
Humidity: 69%
Barometer: 30.23 inHg , 1023.7 hPa
Clouds: Clear
Visibility: 10 miles , 16 km
2015/08/28 13:45 KMTN 281345Z 00000KT 10SM SKC 23/17 A3023
KDMH - Baltimore/Dwntwn, Maryland, USA
Distance from station: SW 12mi, 19km
Updated: Fri, 28-Aug-2015 9:54am EDT

 
Temperature: 73°F , 23°C
Dew Point: 55°F , 13°C
Humidity: 53%
Barometer: 30.22 inHg , 1023.4 hPa
2015/08/28 13:54 KDMH 281354Z AUTO 23/13 A3022 RMK AO1 SLP232 T02330133
 
KBWI - Balto/Wash Intl, Maryland, USA
Distance from station: SSW 20mi, 33km
Updated: Fri, 28-Aug-2015 9:54am EDT
Few Clouds
Few Clouds
 Wind from ENE
Wind: ENE 6 mph , 9 km/h
Temperature: 73°F , 23°C
Dew Point: 55°F , 13°C
Humidity: 53%
Barometer: 30.21 inHg , 1023 hPa
Clouds: Few Clouds
Visibility: 10 miles , 16 km
Cloud details: Few Clouds 6000 ft
2015/08/28 13:54 KBWI 281354Z 07005KT 10SM FEW060 23/13 A3021 RMK AO2 SLP229 T02330133
KDMW - Carroll Cnty, Maryland, USA
Distance from station: WNW 30mi, 48km
Updated: Fri, 28-Aug-2015 10:25am EDT
Clear
Clear
 Wind from calm
Wind: Calm
Temperature: 70°F , 21°C
Dew Point: 57°F , 14°C
Humidity: 64%
Barometer: 30.23 inHg , 1023.7 hPa
Clouds: Clear
Visibility: 10 miles , 16 km
2015/08/28 14:25 KDMW 281425Z AUTO 00000KT 10SM CLR 21/14 A3023 RMK AO2
 
KNAK - Annapolis/Naval, Maryland, USA
Distance from station: S 30mi, 48km
Updated: Fri, 28-Aug-2015 9:54am EDT
Clear
Clear
 Wind from varies
Wind: varies 3 mph , 6 km/h
Temperature: 73°F , 23°C
Dew Point: 61°F , 16°C
Humidity: 65%
Barometer: 30.21 inHg , 1023 hPa
Clouds: Clear
Visibility: 10 miles , 16 km
2015/08/28 13:54 KNAK 281354Z AUTO VRB03KT 10SM CLR 23/16 A3021 RMK AO2 SLP231 T02330161
KW29 - Stevensville, Maryland, USA
Distance from station: SSE 31mi, 50km
Updated: Fri, 28-Aug-2015 10:24am EDT

 Wind from ENE
Wind: ENE 3 mph , 6 km/h
Temperature: 73°F , 23°C
Dew Point: 54°F , 12°C
Humidity: 50%
Barometer: 30.22 inHg , 1023.4 hPa
Visibility: 10 miles , 16 km
2015/08/28 14:24 KW29 281424Z AUTO 07003KT 10SM 23/12 A3022 RMK AO1
 
KCGS - College Park, Maryland, USA
Distance from station: SW 38mi, 61km
Updated: Fri, 28-Aug-2015 10:25am EDT
Clear
Clear
 Wind from NE
Wind: NE 3 mph , 6 km/h
Temperature: 75°F , 24°C
Dew Point: 55°F , 13°C
Humidity: 50%
Barometer: 30.22 inHg , 1023.4 hPa
Clouds: Clear
Visibility: 10 miles , 16 km
2015/08/28 14:25 KCGS 281425Z AUTO 05003KT 10SM CLR 24/13 A3022 RMK AO1
KGAI - Gaithersburg, Maryland, USA
Distance from station: WSW 40mi, 65km
Updated: Fri, 28-Aug-2015 10:35am EDT
Clear
Clear
 Wind from W
Wind: W 5 mph , 7 km/h
Temperature: 73°F , 23°C
Dew Point: 57°F , 14°C
Humidity: 57%
Barometer: 30.26 inHg , 1024.7 hPa
Clouds: Clear
Visibility: 10 miles , 16 km
2015/08/28 14:35 KGAI 281435Z AUTO 26004KT 10SM CLR 23/14 A3026 RMK AO1
 
KTHV - York, Pennsylvania, USA
Distance from station: NNW 40mi, 65km
Updated: Fri, 28-Aug-2015 9:53am EDT
Clear
Clear
 Wind from calm
Wind: Calm
Temperature: 70°F , 21°C
Dew Point: 61°F , 16°C
Humidity: 73%
Barometer: 30.22 inHg , 1023.4 hPa
Clouds: Clear
Visibility: 10 miles , 16 km
2015/08/28 13:53 KTHV 281353Z AUTO 00000KT 10SM CLR 21/16 A3022 RMK AO2 SLP235 T02060156
KFDK - Frederick, Maryland, USA
Distance from station: W 47mi, 75km
Updated: Fri, 28-Aug-2015 9:50am EDT
Clear
Clear
 Wind from calm
Wind: Calm
Temperature: 72°F , 22°C
Dew Point: 61°F , 16°C
Humidity: 69%
Barometer: 30.25 inHg , 1024.4 hPa
Clouds: Clear
Visibility: 10 miles , 16 km
2015/08/28 13:50 KFDK 281350Z 00000KT 10SM SKC 22/16 A3025
 
KESN - Easton/Newnam, Maryland, USA
Distance from station: SSE 48mi, 78km
Updated: Fri, 28-Aug-2015 9:55am EDT
Clear
Clear
 Wind from NE
Wind: NE 7 mph , 11 km/h
Temperature: 73°F , 23°C
Dew Point: 61°F , 16°C
Humidity: 65%
Barometer: 30.25 inHg , 1024.4 hPa
Clouds: Clear
Visibility: 10 miles , 16 km
2015/08/28 13:55 KESN 281355Z 05006KT 10SM SKC 23/16 A3025
KDCA - Washington/Natl, Washington D.c., USA
Distance from station: SW 49mi, 79km
Updated: Fri, 28-Aug-2015 9:52am EDT
Few Clouds
Few Clouds
 Wind from calm
Wind: Calm
Temperature: 75°F , 24°C
Dew Point: 57°F , 14°C
Humidity: 54%
Barometer: 30.22 inHg , 1023.4 hPa
Clouds: Few Clouds
Visibility: 10 miles , 16 km
Cloud details: Few Clouds 10000 ft
2015/08/28 13:52 KDCA 281352Z 00000KT 10SM FEW100 24/14 A3022 RMK AO2 SLP234 T02390144
 
KLNS - Lancaster, Pennsylvania, USA
Distance from station: N 49mi, 79km
Updated: Fri, 28-Aug-2015 9:53am EDT
Clear
Clear
 Wind from calm
Wind: Calm
Temperature: 70°F , 21°C
Dew Point: 55°F , 13°C
Humidity: 60%
Barometer: 30.22 inHg , 1023.4 hPa
Clouds: Clear
Visibility: 10 miles , 16 km
2015/08/28 13:53 KLNS 281353Z 00000KT 10SM CLR 21/13 A3022 RMK AO2 SLP230 T02110128
KILG - Wilmington, Delaware, USA
Distance from station: ENE 50mi, 81km
Updated: Fri, 28-Aug-2015 9:51am EDT
Clear
Clear
 Wind from varies
Wind: varies 3 mph , 6 km/h
Temperature: 73°F , 23°C
Dew Point: 55°F , 13°C
Humidity: 53%
Barometer: 30.22 inHg , 1023.4 hPa
Clouds: Clear
Visibility: 10 miles , 16 km
2015/08/28 13:51 KILG 281351Z VRB03KT 10SM CLR 23/13 A3022 RMK AO2 SLP232 T02330128